Terminal Aerodrome Forecast
Issued by NWS

Current Version | Previous Version | Text Only | Print | Product List | Glossary Off
Versions: 1 2 3 4 5 6 7 8 9 10 11 12 13 14 15 16 17 18

042
FTUS41 KILN 170537
TAFLUK
TAF
KLUK 170537Z 1706/1806 17008KT P6SM BKN200
     FM170900 19005KT P6SM BKN200
     FM171400 21009KT P6SM SCT200
     FM180000 22006KT P6SM FEW250=

USA.gov is the U.S. government's official web portal to all federal, state and local government web resources and services.